Time;durP1;ratioP1;P1;durP2;ratioP2;P2;SDS_P1;SDS_P2;PMS_P1;PMS_P2;Temp;Humidity;BMP_temperature;BMP_pressure;BME280_temperature;BME280_humidity;BME280_pressure;Samples;Min_cycle;Max_cycle;Signal;HPM_P1;HPM_P2
2023/06/15 00:00:10;;;;;;;4.00;3.43;;;17.20;50.10;;;;;;5099748;28;20453;-59
2023/06/15 00:02:37;;;;;;;4.83;4.33;;;17.20;50.10;;;;;;5099143;28;20442;-58
2023/06/15 00:05:05;;;;;;;5.10;4.00;;;17.20;50.10;;;;;;5099301;28;20458;-59
2023/06/15 00:07:33;;;;;;;5.17;4.10;;;17.20;50.10;;;;;;5099596;28;20445;-58
2023/06/15 00:10:00;;;;;;;3.80;3.50;;;17.20;50.10;;;;;;5099212;28;20460;-57
2023/06/15 00:12:27;;;;;;;4.37;3.70;;;17.10;50.00;;;;;;5099572;28;20846;-58
2023/06/15 00:14:53;;;;;;;6.50;4.17;;;17.10;50.60;;;;;;5100222;28;20513;-58
2023/06/15 00:17:21;;;;;;;5.87;3.90;;;17.10;50.00;;;;;;5100379;28;20541;-57
2023/06/15 00:19:48;;;;;;;4.57;3.73;;;17.10;50.00;;;;;;5099906;28;20442;-57
2023/06/15 00:22:15;;;;;;;5.77;3.60;;;17.10;50.00;;;;;;5099987;28;20777;-58
2023/06/15 00:24:43;;;;;;;4.40;3.23;;;17.10;50.00;;;;;;5095398;28;20442;-58
2023/06/15 00:27:10;;;;;;;5.33;3.70;;;17.10;50.00;;;;;;5096694;28;20955;-58
2023/06/15 00:29:37;;;;;;;6.33;4.23;;;17.00;50.00;;;;;;5097679;28;20452;-58
2023/06/15 00:32:05;;;;;;;4.30;3.90;;;17.00;50.00;;;;;;5097206;28;20442;-58
2023/06/15 00:34:32;;;;;;;4.40;4.00;;;17.00;50.00;;;;;;5096707;28;20449;-58
2023/06/15 00:36:59;;;;;;;4.83;3.67;;;17.00;50.60;;;;;;5096715;28;20500;-57
2023/06/15 00:39:26;;;;;;;3.83;3.37;;;16.90;50.00;;;;;;5096801;28;20442;-58
2023/06/15 00:41:54;;;;;;;6.17;4.57;;;16.90;50.10;;;;;;5096677;28;20438;-58
2023/06/15 00:44:21;;;;;;;5.00;3.77;;;16.90;50.20;;;;;;5096716;28;20468;-58
2023/06/15 00:46:47;;;;;;;4.73;3.70;;;16.80;50.20;;;;;;5096726;28;20549;-58
2023/06/15 00:49:15;;;;;;;5.87;4.37;;;16.80;50.30;;;;;;5096735;28;20448;-57
2023/06/15 00:51:43;;;;;;;4.10;3.80;;;16.70;50.30;;;;;;5096580;28;20442;-58
2023/06/15 00:54:12;;;;;;;4.07;3.67;;;16.70;50.40;;;;;;5096664;28;20442;-58
2023/06/15 00:56:39;;;;;;;6.43;4.03;;;16.60;50.40;;;;;;5096542;28;20578;-58
2023/06/15 00:59:07;;;;;;;5.73;3.90;;;16.60;50.50;;;;;;5096525;28;20450;-58
2023/06/15 01:01:34;;;;;;;6.70;4.30;;;16.50;50.50;;;;;;5096517;28;20442;-58
2023/06/15 01:04:01;;;;;;;4.37;3.80;;;16.50;50.60;;;;;;5096272;28;20441;-58
2023/06/15 01:06:31;;;;;;;7.03;4.10;;;16.50;50.80;;;;;;5096087;28;20774;-59
2023/06/15 01:08:59;;;;;;;4.60;3.73;;;16.50;50.90;;;;;;5096228;28;20442;-57
2023/06/15 01:11:26;;;;;;;6.40;3.67;;;16.40;50.90;;;;;;5095791;28;20458;-58
2023/06/15 01:13:54;;;;;;;4.43;4.03;;;16.30;51.00;;;;;;5096801;28;20438;-58
2023/06/15 01:16:28;;;;;;;6.53;4.40;;;16.30;51.10;;;;;;5095798;28;20477;-57
2023/06/15 01:18:57;;;;;;;5.93;4.30;;;16.30;51.20;;;;;;5096008;28;20426;-57
2023/06/15 01:21:26;;;;;;;5.80;3.90;;;16.20;51.30;;;;;;5095714;28;20775;-58
2023/06/15 01:24:09;;;;;;;7.50;3.97;;;16.20;51.50;;;;;;5095851;28;20442;-58
2023/06/15 01:26:38;;;;;;;4.20;3.73;;;16.10;51.60;;;;;;5095790;28;20458;-58
2023/06/15 01:29:06;;;;;;;5.67;4.40;;;16.10;51.80;;;;;;5095838;28;20843;-57
2023/06/15 01:31:33;;;;;;;5.50;4.40;;;16.10;52.00;;;;;;5095822;28;20448;-56
2023/06/15 01:34:01;;;;;;;5.50;4.67;;;16.00;52.10;;;;;;5095542;28;20798;-58
2023/06/15 01:36:28;;;;;;;6.90;4.30;;;15.90;52.10;;;;;;5095770;28;20504;-56
2023/06/15 01:38:57;;;;;;;4.40;4.00;;;15.90;52.40;;;;;;5094862;28;20449;-56
2023/06/15 01:41:26;;;;;;;7.97;4.60;;;15.90;52.50;;;;;;5095737;28;20446;-57
2023/06/15 01:43:55;;;;;;;5.60;4.23;;;15.80;52.50;;;;;;5095566;28;20814;-58
2023/06/15 01:46:23;;;;;;;7.33;4.23;;;15.80;52.70;;;;;;5095198;28;20466;-57
2023/06/15 01:48:50;;;;;;;5.77;5.10;;;15.80;52.80;;;;;;5095402;28;20438;-57
2023/06/15 01:51:18;;;;;;;7.17;3.87;;;15.70;52.90;;;;;;5095339;28;20446;-57
2023/06/15 01:53:45;;;;;;;7.37;4.63;;;15.60;53.10;;;;;;5095320;28;20446;-57
2023/06/15 01:56:12;;;;;;;5.10;4.20;;;15.60;53.80;;;;;;5095143;28;20511;-57
2023/06/15 01:58:39;;;;;;;5.10;4.07;;;15.50;53.40;;;;;;5095315;28;20446;-57
2023/06/15 02:01:07;;;;;;;5.30;4.50;;;15.50;53.60;;;;;;5095217;28;20446;-57
2023/06/15 02:03:33;;;;;;;5.03;4.33;;;15.50;53.70;;;;;;5095139;28;20438;-57
2023/06/15 02:06:00;;;;;;;7.63;4.03;;;15.40;53.90;;;;;;5095087;28;20473;-57
2023/06/15 02:08:27;;;;;;;6.70;3.60;;;15.40;54.00;;;;;;5095043;28;20503;-57
2023/06/15 02:10:54;;;;;;;5.30;4.03;;;15.40;54.20;;;;;;5094734;28;20450;-57
2023/06/15 02:13:21;;;;;;;8.77;4.57;;;15.40;54.30;;;;;;5095039;28;20446;-57
2023/06/15 02:15:48;;;;;;;7.23;4.50;;;15.40;54.30;;;;;;5094875;28;20585;-58
2023/06/15 02:18:16;;;;;;;5.00;4.50;;;15.40;54.30;;;;;;5094933;28;20493;-57
2023/06/15 02:20:44;;;;;;;4.93;3.70;;;15.30;54.30;;;;;;5094789;28;20515;-56
2023/06/15 02:23:12;;;;;;;4.97;4.40;;;15.30;54.50;;;;;;5094885;28;20902;-58
2023/06/15 02:25:39;;;;;;;9.80;5.03;;;15.30;54.60;;;;;;5094406;28;20988;-58
2023/06/15 02:28:06;;;;;;;5.13;4.50;;;15.30;54.70;;;;;;5094782;28;20438;-57
2023/06/15 02:30:33;;;;;;;7.27;4.63;;;15.20;54.70;;;;;;5095278;28;20450;-57
2023/06/15 02:33:00;;;;;;;6.50;4.77;;;15.20;54.90;;;;;;5094324;28;20913;-58
2023/06/15 02:35:29;;;;;;;4.73;4.23;;;15.20;55.00;;;;;;5094455;28;20470;-56
2023/06/15 02:37:56;;;;;;;9.77;4.47;;;15.20;55.10;;;;;;5094082;28;20944;-57
2023/06/15 02:40:23;;;;;;;5.10;4.60;;;15.20;55.20;;;;;;5094365;28;20446;-57
2023/06/15 02:42:50;;;;;;;6.60;4.50;;;15.10;55.20;;;;;;5094353;28;20515;-58
2023/06/15 02:45:17;;;;;;;7.50;4.80;;;15.10;55.30;;;;;;5094155;28;20462;-57
2023/06/15 02:47:44;;;;;;;6.83;4.13;;;15.00;55.40;;;;;;5093920;28;20489;-57
2023/06/15 02:50:11;;;;;;;5.43;3.93;;;15.00;55.50;;;;;;5093291;28;20488;-57
2023/06/15 02:52:40;;;;;;;5.30;4.80;;;15.00;55.70;;;;;;5094178;28;20449;-55
2023/06/15 02:55:08;;;;;;;4.60;4.00;;;15.00;55.90;;;;;;5093963;28;20855;-56
2023/06/15 02:57:35;;;;;;;6.40;4.60;;;14.90;56.00;;;;;;5094019;28;20478;-56
2023/06/15 03:00:03;;;;;;;7.90;3.90;;;14.90;56.20;;;;;;5094291;28;20447;-57
2023/06/15 03:02:30;;;;;;;5.07;4.57;;;14.90;56.30;;;;;;5094313;28;20534;-57
2023/06/15 03:04:57;;;;;;;4.30;3.90;;;14.90;56.50;;;;;;5094210;28;20446;-57
2023/06/15 03:07:25;;;;;;;5.23;4.07;;;14.90;56.60;;;;;;5094135;28;20442;-57
2023/06/15 03:09:54;;;;;;;4.43;4.03;;;14.80;56.60;;;;;;5093826;28;20454;-58
2023/06/15 03:12:20;;;;;;;12.80;4.67;;;14.90;56.80;;;;;;5093745;28;20442;-56
2023/06/15 03:14:50;;;;;;;5.10;4.60;;;14.90;56.80;;;;;;5093695;28;20533;-55
2023/06/15 03:17:17;;;;;;;5.07;4.10;;;14.90;56.90;;;;;;5093380;28;20903;-55
2023/06/15 03:19:46;;;;;;;8.10;5.00;;;14.90;56.90;;;;;;5093954;28;20579;-56
2023/06/15 03:22:13;;;;;;;6.57;4.83;;;14.90;57.00;;;;;;5093519;28;20442;-57
2023/06/15 03:24:41;;;;;;;7.30;4.20;;;15.00;57.00;;;;;;5095734;28;20485;-57
2023/06/15 03:27:11;;;;;;;6.40;4.57;;;15.00;57.00;;;;;;5100570;28;21009;-57
2023/06/15 03:29:39;;;;;;;5.83;4.47;;;15.00;57.60;;;;;;5096815;28;20442;-57
2023/06/15 03:32:07;;;;;;;4.80;4.10;;;15.10;57.10;;;;;;5094660;28;20439;-57
2023/06/15 03:34:34;;;;;;;6.73;4.83;;;15.20;57.20;;;;;;5094244;28;20442;-57
2023/06/15 03:37:01;;;;;;;10.03;4.93;;;15.20;57.10;;;;;;5093905;28;20466;-57
2023/06/15 03:39:27;;;;;;;4.60;4.20;;;15.30;57.00;;;;;;5093832;28;20438;-57
2023/06/15 03:41:54;;;;;;;4.67;4.27;;;15.40;56.90;;;;;;5093497;28;20443;-57
2023/06/15 03:44:22;;;;;;;5.60;4.50;;;15.50;56.70;;;;;;5094250;28;20439;-57
2023/06/15 03:46:49;;;;;;;8.03;4.70;;;15.60;56.60;;;;;;5094425;28;20458;-57
2023/06/15 03:49:16;;;;;;;6.53;4.33;;;15.70;56.50;;;;;;5094250;28;20478;-58
2023/06/15 03:51:43;;;;;;;6.20;4.43;;;15.80;56.30;;;;;;5093908;28;20442;-57
2023/06/15 03:54:10;;;;;;;5.30;4.20;;;16.00;56.20;;;;;;5093599;28;20434;-57
2023/06/15 03:56:37;;;;;;;5.13;4.20;;;16.40;55.60;;;;;;5093099;28;20465;-57
2023/06/15 03:59:04;;;;;;;4.90;4.40;;;16.80;55.00;;;;;;5092803;28;20999;-57
2023/06/15 04:01:32;;;;;;;4.30;3.60;;;17.20;54.30;;;;;;5092773;28;20826;-59
2023/06/15 04:03:59;;;;;;;5.20;4.13;;;17.50;53.20;;;;;;5092972;28;20507;-57
2023/06/15 04:06:26;;;;;;;4.83;4.03;;;17.70;52.60;;;;;;5092993;28;20458;-58
2023/06/15 04:11:52;;;;;;;9.50;4.67;;;17.60;51.80;;;;;;5152559;27;20549;-57
2023/06/15 04:14:19;;;;;;;7.20;4.57;;;17.50;52.30;;;;;;5151887;27;20440;-57
2023/06/15 04:16:46;;;;;;;10.80;5.60;;;17.50;52.50;;;;;;5151663;27;20468;-56
2023/06/15 04:19:13;;;;;;;9.03;5.00;;;17.70;52.10;;;;;;5151504;27;20440;-58
2023/06/15 04:21:39;;;;;;;6.03;4.40;;;18.00;51.80;;;;;;5151542;27;20444;-58
2023/06/15 04:24:06;;;;;;;7.23;4.57;;;18.30;51.20;;;;;;5151652;27;20450;-58
2023/06/15 04:26:33;;;;;;;4.60;4.20;;;18.50;50.60;;;;;;5151394;27;20467;-58
2023/06/15 04:29:02;;;;;;;5.00;4.50;;;18.40;50.40;;;;;;5151292;27;20528;-58
2023/06/15 04:31:33;;;;;;;5.90;4.23;;;18.20;50.50;;;;;;5151089;27;20477;-58
2023/06/15 04:34:00;;;;;;;4.60;4.20;;;18.40;50.60;;;;;;5151526;27;20420;-59
2023/06/15 04:36:31;;;;;;;8.13;4.60;;;18.80;50.20;;;;;;5151340;27;20520;-58
2023/06/15 04:38:58;;;;;;;4.50;4.10;;;19.30;49.40;;;;;;5151366;27;20454;-57
2023/06/15 04:41:27;;;;;;;6.93;4.90;;;19.70;48.60;;;;;;5171610;22;20445;-54
2023/06/15 04:43:54;;;;;;;5.77;3.83;;;20.20;47.80;;;;;;5050015;28;20949;-55
2023/06/15 04:46:23;;;;;;;5.70;5.03;;;20.50;46.80;;;;;;5050654;28;20442;-56
2023/06/15 04:48:49;;;;;;;5.47;4.20;;;20.50;46.20;;;;;;5050470;28;20453;-55
2023/06/15 04:51:16;;;;;;;6.73;4.67;;;20.20;46.90;;;;;;5049869;28;20482;-55
2023/06/15 04:53:43;;;;;;;7.00;4.03;;;20.00;46.70;;;;;;5030394;28;20498;-55
2023/06/15 04:56:11;;;;;;;5.23;4.30;;;20.10;46.60;;;;;;5030215;28;20541;-56
2023/06/15 04:58:38;;;;;;;4.80;4.30;;;20.40;46.10;;;;;;5030314;28;21000;-55
2023/06/15 05:01:06;;;;;;;7.40;5.10;;;20.60;45.40;;;;;;5030704;28;20448;-56
2023/06/15 05:03:34;;;;;;;4.70;4.23;;;20.70;45.30;;;;;;5030845;28;20568;-54
2023/06/15 05:06:01;;;;;;;5.30;4.30;;;20.90;45.10;;;;;;5030118;28;20528;-55
2023/06/15 05:08:28;;;;;;;7.97;4.97;;;21.20;44.80;;;;;;5029684;28;20446;-54
2023/06/15 05:10:55;;;;;;;5.80;4.47;;;21.40;44.30;;;;;;5030810;28;20510;-55
2023/06/15 05:13:22;;;;;;;5.77;4.17;;;21.30;44.20;;;;;;5029962;28;20471;-56
2023/06/15 05:15:48;;;;;;;17.00;7.30;;;21.10;44.40;;;;;;5030777;28;20447;-56
2023/06/15 05:18:15;;;;;;;4.33;3.87;;;21.10;44.70;;;;;;5030740;28;20445;-55
2023/06/15 05:20:43;;;;;;;6.27;4.70;;;21.10;44.60;;;;;;5030367;28;20968;-55
2023/06/15 05:23:11;;;;;;;6.67;4.43;;;20.90;44.60;;;;;;5017768;28;20466;-55
2023/06/15 05:25:38;;;;;;;8.60;4.90;;;20.70;45.00;;;;;;5017366;28;20457;-55
2023/06/15 05:28:05;;;;;;;10.17;5.07;;;20.50;45.20;;;;;;5016265;28;20454;-55
2023/06/15 05:30:31;;;;;;;6.93;4.50;;;20.50;45.50;;;;;;5017511;28;20492;-57
2023/06/15 05:32:58;;;;;;;5.53;4.27;;;20.50;45.60;;;;;;5017221;28;20470;-56
2023/06/15 05:35:25;;;;;;;7.67;4.37;;;20.60;45.70;;;;;;5016545;28;20534;-55
2023/06/15 05:37:53;;;;;;;9.30;4.53;;;20.70;45.70;;;;;;5016959;28;20442;-56
2023/06/15 05:40:20;;;;;;;5.10;4.10;;;21.10;45.60;;;;;;5017631;28;20477;-56
2023/06/15 05:42:47;;;;;;;5.50;4.30;;;21.40;45.00;;;;;;5018202;28;20480;-59
2023/06/15 05:45:14;;;;;;;5.13;4.30;;;21.60;44.60;;;;;;5017491;28;20453;-57
2023/06/15 05:47:41;;;;;;;6.10;4.17;;;21.80;44.40;;;;;;5018980;28;20450;-58
2023/06/15 05:50:08;;;;;;;7.30;4.40;;;22.00;44.30;;;;;;5019426;28;20480;-57
2023/06/15 05:52:35;;;;;;;9.27;4.53;;;22.10;44.00;;;;;;5017383;28;20468;-58
2023/06/15 05:55:04;;;;;;;6.87;4.03;;;22.00;43.90;;;;;;5016229;28;20488;-58
2023/06/15 05:57:31;;;;;;;8.07;4.13;;;22.00;44.00;;;;;;5016629;28;20454;-58
2023/06/15 05:59:58;;;;;;;5.77;4.30;;;22.00;43.80;;;;;;5015838;28;20451;-57
2023/06/15 06:02:24;;;;;;;6.93;3.87;;;22.00;43.80;;;;;;5016151;28;20478;-57
2023/06/15 06:04:51;;;;;;;6.43;4.50;;;22.10;43.80;;;;;;5016269;28;20452;-57
2023/06/15 06:07:18;;;;;;;5.03;3.83;;;22.10;43.70;;;;;;5016900;28;20459;-57
2023/06/15 06:09:45;;;;;;;7.53;3.93;;;22.10;43.60;;;;;;5017201;28;20543;-57
2023/06/15 06:12:13;;;;;;;6.70;4.57;;;22.10;43.60;;;;;;5016516;28;20488;-58
2023/06/15 06:14:40;;;;;;;6.07;4.20;;;22.10;43.40;;;;;;5016408;28;20531;-57
2023/06/15 06:17:09;;;;;;;8.90;4.47;;;22.30;43.20;;;;;;5017033;28;20452;-57
2023/06/15 06:19:35;;;;;;;8.43;4.07;;;22.40;43.00;;;;;;5017030;28;20830;-58
2023/06/15 06:22:02;;;;;;;8.40;4.53;;;22.40;42.70;;;;;;5016978;28;20472;-57
2023/06/15 06:24:29;;;;;;;6.53;3.73;;;22.40;42.40;;;;;;5016625;28;20454;-58
2023/06/15 06:26:57;;;;;;;7.00;3.63;;;22.50;42.30;;;;;;5017343;28;20458;-57
2023/06/15 06:29:25;;;;;;;4.83;4.00;;;22.40;41.80;;;;;;5017837;28;20477;-58
2023/06/15 06:31:51;;;;;;;5.20;3.77;;;22.20;41.50;;;;;;5016951;28;20501;-57
2023/06/15 06:34:18;;;;;;;5.73;3.90;;;22.10;41.50;;;;;;5015469;28;20460;-57
2023/06/15 06:36:45;;;;;;;10.20;4.20;;;22.00;41.50;;;;;;5016896;28;20550;-56
2023/06/15 06:39:12;;;;;;;6.93;4.00;;;21.90;41.30;;;;;;5016693;28;20446;-55
2023/06/15 06:41:39;;;;;;;8.23;4.10;;;21.90;41.40;;;;;;5016157;28;20478;-57
2023/06/15 06:44:05;;;;;;;8.10;3.70;;;21.80;41.10;;;;;;5015436;28;20430;-58
2023/06/15 06:46:33;;;;;;;5.50;3.67;;;21.80;41.10;;;;;;5016104;28;20962;-56
2023/06/15 06:49:00;;;;;;;8.37;4.13;;;21.80;41.10;;;;;;5016448;28;20460;-56
2023/06/15 06:51:27;;;;;;;4.17;2.80;;;21.90;41.10;;;;;;5015161;28;20497;-57
2023/06/15 06:53:54;;;;;;;9.60;3.50;;;22.00;40.80;;;;;;5015330;28;20468;-57
2023/06/15 06:56:21;;;;;;;5.33;3.20;;;22.10;40.00;;;;;;5017571;28;20452;-56
2023/06/15 06:58:47;;;;;;;12.10;3.80;;;22.00;39.80;;;;;;5015844;28;20902;-57
2023/06/15 07:01:14;;;;;;;5.00;4.00;;;22.10;39.60;;;;;;5014712;28;20820;-56
2023/06/15 07:03:42;;;;;;;3.93;3.43;;;22.20;39.80;;;;;;5014942;28;20557;-57
2023/06/15 07:06:09;;;;;;;4.70;3.50;;;22.40;38.90;;;;;;5015918;28;20449;-57
2023/06/15 07:08:36;;;;;;;4.10;3.50;;;22.50;38.70;;;;;;5017497;28;20927;-57
2023/06/15 07:11:03;;;;;;;4.83;2.70;;;22.50;38.40;;;;;;5018908;28;20485;-57
2023/06/15 07:13:29;;;;;;;3.97;3.10;;;22.50;38.30;;;;;;5018521;28;20495;-58
2023/06/15 07:15:57;;;;;;;5.10;3.50;;;22.50;38.20;;;;;;5017067;28;20467;-57
2023/06/15 07:18:25;;;;;;;4.37;3.33;;;22.40;38.40;;;;;;5018076;28;20479;-60
2023/06/15 07:20:54;;;;;;;7.70;2.97;;;22.40;38.50;;;;;;5016255;28;20445;-58
2023/06/15 07:23:22;;;;;;;6.43;3.63;;;22.60;38.50;;;;;;5015408;28;20457;-58
2023/06/15 07:25:49;;;;;;;11.47;3.60;;;22.60;38.30;;;;;;5015315;28;20455;-58
2023/06/15 07:28:16;;;;;;;5.90;3.30;;;22.70;38.40;;;;;;5015506;28;20452;-58
2023/06/15 07:30:43;;;;;;;4.93;3.20;;;22.80;38.50;;;;;;5014864;28;20554;-57
2023/06/15 07:33:10;;;;;;;7.73;3.37;;;22.90;38.50;;;;;;5015188;28;20547;-56
2023/06/15 07:35:37;;;;;;;5.50;3.67;;;22.90;38.40;;;;;;5015089;28;20453;-57
2023/06/15 07:38:06;;;;;;;6.20;4.17;;;22.90;38.20;;;;;;5015286;28;20460;-58
2023/06/15 07:40:32;;;;;;;5.57;3.57;;;22.90;38.20;;;;;;5015614;28;20456;-56
2023/06/15 07:42:59;;;;;;;5.00;3.20;;;22.90;38.20;;;;;;5015106;28;20580;-56
2023/06/15 07:45:26;;;;;;;8.83;3.50;;;23.00;38.20;;;;;;5015782;28;20452;-58
2023/06/15 07:47:53;;;;;;;7.40;3.67;;;23.10;37.90;;;;;;5016784;28;20450;-58
2023/06/15 07:50:20;;;;;;;5.33;3.63;;;23.20;37.50;;;;;;5016005;28;20453;-58
2023/06/15 07:52:47;;;;;;;4.50;3.33;;;23.20;37.40;;;;;;5015321;28;21022;-57
2023/06/15 07:55:15;;;;;;;4.80;2.90;;;23.20;36.90;;;;;;5015930;28;20460;-57
2023/06/15 07:57:42;;;;;;;8.23;3.67;;;23.20;36.60;;;;;;5015927;28;20939;-58
2023/06/15 08:00:10;;;;;;;7.50;3.30;;;23.20;36.50;;;;;;5015635;28;20461;-57
2023/06/15 08:02:36;;;;;;;5.30;3.10;;;23.30;36.50;;;;;;5016152;28;20476;-59
2023/06/15 08:05:04;;;;;;;5.43;2.67;;;23.30;36.40;;;;;;5015832;28;20481;-61
2023/06/15 08:07:31;;;;;;;4.47;2.97;;;23.30;36.40;;;;;;5015589;28;20453;-57
2023/06/15 08:09:59;;;;;;;4.50;3.10;;;23.30;36.30;;;;;;5016078;28;20535;-58
2023/06/15 08:12:27;;;;;;;8.03;3.27;;;23.40;36.20;;;;;;5015756;28;20513;-57
2023/06/15 08:14:54;;;;;;;5.80;3.60;;;23.40;36.20;;;;;;5018297;28;20484;-57
2023/06/15 08:17:21;;;;;;;5.63;3.50;;;23.40;36.20;;;;;;5019200;28;20442;-58
2023/06/15 08:19:48;;;;;;;4.77;3.33;;;23.40;36.40;;;;;;5018868;28;21042;-58
2023/06/15 08:22:15;;;;;;;6.77;3.63;;;23.60;36.40;;;;;;5017449;28;20473;-58
2023/06/15 08:24:41;;;;;;;8.87;3.43;;;23.70;36.10;;;;;;5018190;28;20449;-58
2023/06/15 08:27:10;;;;;;;5.70;3.13;;;24.00;35.10;;;;;;5017352;28;20457;-58
2023/06/15 08:29:38;;;;;;;7.50;3.33;;;24.10;34.20;;;;;;5020120;28;20446;-58
2023/06/15 08:32:11;;;;;;;4.67;3.40;;;24.20;33.70;;;;;;5018825;28;20486;-58
2023/06/15 08:34:38;;;;;;;3.13;2.83;;;24.40;33.50;;;;;;5018713;28;20485;-57
2023/06/15 08:37:05;;;;;;;4.43;3.33;;;24.50;33.50;;;;;;5020343;28;20453;-58
2023/06/15 08:39:31;;;;;;;7.43;3.10;;;24.60;33.30;;;;;;5020326;28;20454;-58
2023/06/15 08:42:01;;;;;;;4.50;3.03;;;24.60;33.30;;;;;;5019579;28;20565;-58
2023/06/15 08:44:28;;;;;;;8.47;3.50;;;24.60;33.30;;;;;;5020186;28;20464;-57
2023/06/15 08:46:57;;;;;;;4.97;3.30;;;24.60;33.50;;;;;;5019897;28;20490;-57
2023/06/15 08:49:26;;;;;;;7.60;3.40;;;24.70;33.60;;;;;;5020343;28;20452;-58
2023/06/15 08:51:55;;;;;;;4.97;3.23;;;24.80;33.60;;;;;;5021115;28;20520;-57
2023/06/15 08:54:22;;;;;;;3.80;2.90;;;24.80;33.50;;;;;;5021694;28;20457;-56
2023/06/15 08:56:49;;;;;;;5.73;3.27;;;24.80;33.60;;;;;;5018563;28;20452;-59
2023/06/15 08:59:17;;;;;;;4.67;3.27;;;24.60;33.40;;;;;;5021079;28;20825;-58
2023/06/15 09:01:44;;;;;;;3.57;3.23;;;24.50;33.80;;;;;;5019262;28;20982;-57
2023/06/15 09:04:12;;;;;;;3.20;2.90;;;24.60;33.70;;;;;;5019133;28;21130;-59
2023/06/15 09:06:40;;;;;;;3.10;2.80;;;24.70;33.30;;;;;;5018602;28;20452;-58
2023/06/15 09:09:07;;;;;;;10.37;2.93;;;24.80;32.60;;;;;;5019151;28;20505;-58
2023/06/15 09:11:40;;;;;;;5.87;3.03;;;24.90;31.70;;;;;;5018463;28;20483;-56
2023/06/15 09:14:09;;;;;;;4.53;3.03;;;25.10;31.60;;;;;;5018565;28;20440;-58
2023/06/15 09:16:36;;;;;;;4.70;3.27;;;25.10;31.20;;;;;;5017547;28;20459;-58
2023/06/15 09:19:10;;;;;;;3.30;3.00;;;25.30;30.80;;;;;;5018023;28;20559;-57
2023/06/15 09:21:40;;;;;;;5.20;3.50;;;25.30;30.40;;;;;;5018163;28;20488;-59
2023/06/15 09:24:09;;;;;;;5.67;3.00;;;25.30;30.50;;;;;;5018241;28;20454;-58
2023/06/15 09:26:39;;;;;;;4.67;3.50;;;25.30;30.30;;;;;;5017716;28;20455;-60
2023/06/15 09:29:11;;;;;;;4.80;3.20;;;25.30;30.20;;;;;;5017891;28;20919;-58
2023/06/15 09:31:40;;;;;;;3.43;3.13;;;25.30;30.30;;;;;;5017728;28;20493;-57
2023/06/15 09:34:08;;;;;;;3.03;2.63;;;25.50;30.30;;;;;;5017962;28;20456;-58
2023/06/15 09:36:40;;;;;;;3.97;2.77;;;25.50;30.30;;;;;;5017918;28;20455;-58
2023/06/15 09:39:09;;;;;;;7.23;4.17;;;25.70;30.30;;;;;;5018475;28;20429;-57
2023/06/15 09:41:36;;;;;;;7.77;3.33;;;25.80;29.80;;;;;;5018660;28;20443;-57
2023/06/15 09:44:06;;;;;;;3.40;2.77;;;25.90;29.10;;;;;;5019009;28;20426;-59
2023/06/15 09:46:32;;;;;;;3.87;3.43;;;25.90;28.60;;;;;;5019486;28;20458;-58
2023/06/15 09:48:59;;;;;;;6.67;2.93;;;26.00;28.20;;;;;;5018604;28;20539;-57
2023/06/15 09:51:33;;;;;;;5.90;3.10;;;26.10;27.80;;;;;;5018312;28;20484;-59
2023/06/15 09:54:04;;;;;;;2.77;2.57;;;26.20;27.90;;;;;;5018310;28;20440;-57
2023/06/15 09:56:33;;;;;;;5.37;3.40;;;26.30;28.10;;;;;;5018616;28;20432;-57
2023/06/15 09:59:02;;;;;;;5.00;2.63;;;26.40;28.10;;;;;;5019147;28;20454;-55
2023/06/15 10:01:33;;;;;;;4.50;2.93;;;26.50;28.00;;;;;;5018082;28;20502;-58
2023/06/15 10:04:00;;;;;;;3.50;3.20;;;26.70;27.90;;;;;;5017760;28;20601;-57
2023/06/15 10:06:27;;;;;;;4.90;3.30;;;26.90;27.60;;;;;;5017539;28;20830;-58
2023/06/15 10:09:00;;;;;;;4.90;3.03;;;27.00;27.70;;;;;;5018745;28;20451;-57
2023/06/15 10:11:29;;;;;;;4.87;3.30;;;26.90;27.70;;;;;;5018339;28;21010;-57
2023/06/15 10:14:03;;;;;;;4.80;3.30;;;26.60;27.80;;;;;;5018952;28;20486;-57
2023/06/15 10:16:31;;;;;;;8.73;3.57;;;26.20;28.20;;;;;;5017976;28;20427;-58
2023/06/15 10:19:04;;;;;;;6.03;3.37;;;26.10;28.40;;;;;;5019263;28;20518;-59
2023/06/15 10:21:36;;;;;;;4.47;3.07;;;26.20;28.50;;;;;;5018324;28;20467;-57
2023/06/15 10:24:09;;;;;;;6.30;3.50;;;26.40;28.40;;;;;;5017520;28;21017;-58
2023/06/15 10:26:38;;;;;;;4.40;3.20;;;26.70;28.30;;;;;;5018753;28;20472;-58
2023/06/15 10:29:12;;;;;;;7.20;3.50;;;26.70;28.20;;;;;;5019126;28;20869;-57
2023/06/15 10:31:44;;;;;;;6.00;3.60;;;26.70;28.20;;;;;;5017599;28;20470;-58
2023/06/15 10:34:19;;;;;;;6.40;3.50;;;26.70;28.00;;;;;;5017364;28;20436;-58
2023/06/15 10:36:53;;;;;;;4.97;3.47;;;26.70;28.10;;;;;;5018722;28;20522;-59
2023/06/15 10:39:25;;;;;;;4.70;3.43;;;26.50;28.10;;;;;;5018060;28;20460;-59
2023/06/15 10:41:56;;;;;;;3.73;3.43;;;26.40;28.10;;;;;;5018197;28;20577;-59
2023/06/15 10:44:31;;;;;;;7.40;3.80;;;26.30;28.30;;;;;;5017515;28;20519;-57
2023/06/15 10:47:06;;;;;;;4.07;3.70;;;26.50;28.30;;;;;;5017716;28;20432;-58
2023/06/15 10:49:33;;;;;;;5.20;2.90;;;26.80;28.00;;;;;;5017459;28;20431;-59
2023/06/15 10:52:00;;;;;;;6.50;3.70;;;27.10;27.80;;;;;;5017494;28;20491;-60
2023/06/15 10:54:28;;;;;;;4.60;3.60;;;27.40;27.40;;;;;;5017244;28;20445;-58
2023/06/15 10:56:57;;;;;;;3.40;3.10;;;27.70;27.10;;;;;;5017356;28;20457;-58
2023/06/15 10:59:42;;;;;;;5.73;3.00;;;28.00;26.80;;;;;;5016857;28;20482;-57
2023/06/15 11:02:48;;;;;;;4.50;3.70;;;28.30;26.60;;;;;;5017474;28;20467;-60
2023/06/15 11:05:19;;;;;;;4.70;3.07;;;28.60;26.20;;;;;;5018373;28;20464;-58
2023/06/15 11:07:49;;;;;;;5.50;3.83;;;28.70;26.00;;;;;;5018780;28;21017;-58
2023/06/15 11:10:21;;;;;;;6.90;3.47;;;28.60;26.10;;;;;;5018832;28;20456;-59
2023/06/15 11:13:00;;;;;;;5.10;3.60;;;28.50;26.40;;;;;;5018765;28;20489;-58
2023/06/15 11:15:31;;;;;;;5.47;3.30;;;28.50;26.60;;;;;;5017077;28;20423;-60
2023/06/15 11:18:00;;;;;;;5.50;4.00;;;28.20;26.60;;;;;;5017201;28;20511;-58
2023/06/15 11:20:59;;;;;;;4.17;3.40;;;28.10;27.40;;;;;;5015957;28;20443;-59
2023/06/15 11:23:31;;;;;;;4.00;3.40;;;28.10;26.90;;;;;;5016433;28;20462;-59
2023/06/15 11:26:01;;;;;;;3.47;3.17;;;28.30;26.80;;;;;;5016282;28;20799;-58
2023/06/15 11:28:33;;;;;;;4.80;3.87;;;28.40;26.70;;;;;;5019858;28;20495;-59
2023/06/15 11:31:02;;;;;;;6.23;4.00;;;28.50;26.60;;;;;;5022289;28;20470;-58
2023/06/15 11:33:30;;;;;;;3.77;3.40;;;28.70;26.40;;;;;;5022377;28;20487;-61
2023/06/15 11:35:57;;;;;;;3.73;3.43;;;28.70;26.20;;;;;;5022800;28;20512;-60
2023/06/15 11:38:26;;;;;;;4.27;3.87;;;28.60;26.20;;;;;;5022886;28;20446;-59
2023/06/15 11:40:59;;;;;;;4.07;3.53;;;28.50;26.40;;;;;;5022806;28;20486;-59
2023/06/15 11:43:30;;;;;;;5.13;3.57;;;28.40;26.60;;;;;;5021235;28;20474;-58
2023/06/15 11:45:58;;;;;;;6.73;3.80;;;28.40;26.60;;;;;;5021894;28;20497;-58
2023/06/15 11:48:25;;;;;;;8.17;4.27;;;28.30;26.80;;;;;;5021419;28;20937;-59
2023/06/15 11:50:52;;;;;;;5.13;3.60;;;28.00;26.90;;;;;;5020573;28;20452;-60
2023/06/15 11:53:20;;;;;;;5.47;3.70;;;27.80;27.10;;;;;;5021007;28;20491;-59
2023/06/15 11:55:47;;;;;;;4.40;3.50;;;27.60;27.10;;;;;;5020859;28;20546;-58
2023/06/15 11:58:14;;;;;;;4.37;3.80;;;27.30;27.30;;;;;;5021090;28;20449;-59
2023/06/15 12:00:41;;;;;;;5.13;3.47;;;27.00;27.60;;;;;;5021254;28;20446;-58
2023/06/15 12:03:11;;;;;;;3.83;3.50;;;26.90;27.80;;;;;;5022811;28;20923;-59
2023/06/15 12:05:37;;;;;;;4.20;3.80;;;26.90;27.70;;;;;;5023850;28;20456;-58
2023/06/15 12:08:06;;;;;;;9.53;3.80;;;27.00;27.60;;;;;;5023601;28;20457;-59
2023/06/15 12:10:34;;;;;;;6.00;3.40;;;27.30;27.30;;;;;;5023944;28;20458;-57
2023/06/15 12:13:01;;;;;;;5.07;3.50;;;27.70;27.00;;;;;;5022723;28;20999;-59
2023/06/15 12:15:29;;;;;;;6.27;3.70;;;27.90;26.70;;;;;;5022673;28;20465;-58
2023/06/15 12:17:58;;;;;;;6.00;3.93;;;28.10;26.70;;;;;;5022615;28;20971;-58
2023/06/15 12:20:29;;;;;;;4.47;3.77;;;28.60;26.50;;;;;;5020877;28;20541;-58
2023/06/15 12:22:56;;;;;;;6.97;3.80;;;29.30;26.00;;;;;;5020698;28;20493;-58
2023/06/15 12:25:42;;;;;;;4.13;3.40;;;29.40;25.50;;;;;;5021547;28;20479;-57
2023/06/15 12:28:17;;;;;;;3.40;3.10;;;29.40;25.50;;;;;;5021545;28;20435;-59
2023/06/15 12:30:44;;;;;;;5.30;3.40;;;29.90;25.30;;;;;;5021091;28;20951;-59
2023/06/15 12:33:27;;;;;;;4.20;3.20;;;30.30;24.90;;;;;;5023989;28;20584;-60
2023/06/15 12:35:56;;;;;;;3.50;3.00;;;30.60;24.80;;;;;;5026294;28;21010;-58
2023/06/15 12:38:24;;;;;;;5.07;3.60;;;30.70;24.70;;;;;;5022536;28;20450;-59
2023/06/15 12:40:53;;;;;;;3.00;2.73;;;30.60;24.60;;;;;;5020145;28;20815;-59
2023/06/15 12:43:20;;;;;;;4.40;3.60;;;30.60;24.70;;;;;;5020042;28;20992;-57
2023/06/15 12:45:47;;;;;;;5.50;3.63;;;30.60;24.60;;;;;;5020512;28;20936;-58
2023/06/15 12:48:14;;;;;;;3.73;3.43;;;30.30;24.80;;;;;;5020400;28;20815;-57
2023/06/15 12:50:41;;;;;;;4.40;3.50;;;29.80;25.00;;;;;;5021250;28;20456;-61
2023/06/15 12:53:10;;;;;;;12.27;3.90;;;29.40;25.40;;;;;;5019913;28;20478;-58